Time;durP1;ratioP1;P1;durP2;ratioP2;P2;SDS_P1;SDS_P2;PMS_P1;PMS_P2;Temp;Humidity;BMP_temperature;BMP_pressure;BME280_temperature;BME280_humidity;BME280_pressure;Samples;Min_cycle;Max_cycle;Signal;HPM_P1;HPM_P2
2021/03/14 00:00:12;;;;;;;1.40;0.93;;;;;;;7.58;61.25;95969.25;5011751;28;20037;-79
2021/03/14 00:02:38;;;;;;;1.33;0.90;;;;;;;7.46;61.19;95966.88;4995215;28;20057;-78
2021/03/14 00:05:05;;;;;;;4.85;1.70;;;;;;;7.55;61.37;95968.97;5030742;28;20029;-79
2021/03/14 00:07:30;;;;;;;2.78;0.63;;;;;;;7.67;60.75;95974.72;4994748;28;20087;-78
2021/03/14 00:09:57;;;;;;;1.70;0.60;;;;;;;7.69;61.43;95975.22;5028419;28;20475;-79
2021/03/14 00:12:22;;;;;;;2.50;0.70;;;;;;;7.57;61.40;95974.69;5008088;28;20037;-78
2021/03/14 00:14:48;;;;;;;3.10;1.30;;;;;;;7.55;61.19;95972.34;5012388;28;20033;-78
2021/03/14 00:17:13;;;;;;;1.80;0.60;;;;;;;7.58;61.30;95981.44;4996676;28;20057;-79
2021/03/14 00:19:39;;;;;;;2.65;1.00;;;;;;;7.79;60.42;96000.41;4984888;28;20025;-79
2021/03/14 00:22:04;;;;;;;4.00;1.00;;;;;;;7.52;61.68;96003.16;4994507;28;20335;-78
2021/03/14 00:24:30;;;;;;;2.60;1.00;;;;;;;7.48;62.52;96021.78;5025679;28;20033;-79
2021/03/14 00:26:55;;;;;;;2.90;0.95;;;;;;;7.28;62.78;96027.66;5010880;28;20025;-79
2021/03/14 00:29:21;;;;;;;4.15;0.95;;;;;;;6.71;63.16;96033.50;4994170;28;20030;-79
2021/03/14 00:31:47;;;;;;;3.00;0.60;;;;;;;6.55;63.98;96046.31;5011789;28;20025;-79
2021/03/14 00:34:13;;;;;;;2.58;0.70;;;;;;;6.32;63.92;96044.03;5027929;28;20040;-79
2021/03/14 00:36:39;;;;;;;2.55;0.55;;;;;;;6.48;63.82;96037.97;5029895;28;20379;-79
2021/03/14 00:39:04;;;;;;;1.38;0.40;;;;;;;6.44;63.24;96029.13;5031739;28;20036;-80
2021/03/14 00:41:30;;;;;;;2.42;0.47;;;;;;;6.32;64.17;96051.78;5024794;28;20483;-79
2021/03/14 00:43:55;;;;;;;1.15;0.40;;;;;;;6.34;64.04;96049.72;5015065;28;20083;-79
2021/03/14 00:46:21;;;;;;;1.40;0.30;;;;;;;6.35;63.45;96067.56;5024876;28;20400;-80
2021/03/14 00:48:46;;;;;;;3.38;0.40;;;;;;;6.23;64.69;96061.00;5013022;28;20599;-80
2021/03/14 00:51:11;;;;;;;2.15;0.40;;;;;;;6.38;63.84;96076.66;5014413;28;20033;-80
2021/03/14 00:53:37;;;;;;;1.90;0.40;;;;;;;6.34;63.69;96075.56;5012753;28;20048;-79
2021/03/14 00:56:03;;;;;;;2.92;1.40;;;;;;;6.28;64.51;96072.16;5021151;28;20038;-80
2021/03/14 00:58:29;;;;;;;2.97;0.60;;;;;;;6.35;64.26;96087.47;5030343;28;20112;-79
2021/03/14 01:00:54;;;;;;;1.95;0.50;;;;;;;6.43;64.85;96084.47;5030853;28;20036;-80
2021/03/14 01:03:19;;;;;;;1.48;0.47;;;;;;;6.43;63.90;96088.88;5020593;28;20048;-79
2021/03/14 01:05:45;;;;;;;2.70;0.60;;;;;;;6.47;64.39;96084.75;5014440;28;20112;-79
2021/03/14 01:08:11;;;;;;;0.57;0.35;;;;;;;6.43;64.02;96091.44;5028529;28;20336;-80
2021/03/14 01:10:37;;;;;;;3.75;0.80;;;;;;;6.41;64.11;96096.06;5015518;28;20022;-79
2021/03/14 01:13:04;;;;;;;1.25;0.70;;;;;;;6.24;64.82;96090.97;4995563;28;20027;-80
2021/03/14 01:15:30;;;;;;;2.13;1.17;;;;;;;6.33;64.93;96094.72;4988511;28;20048;-79
2021/03/14 01:17:55;;;;;;;4.60;0.70;;;;;;;6.26;64.81;96088.97;5013430;28;20020;-80
2021/03/14 01:20:21;;;;;;;2.35;0.80;;;;;;;6.27;64.45;96093.09;5014995;28;20032;-79
2021/03/14 01:22:48;;;;;;;2.40;1.15;;;;;;;6.34;64.49;96097.06;5026515;28;20039;-79
2021/03/14 01:25:13;;;;;;;4.03;0.98;;;;;;;6.33;64.97;96105.06;5000875;28;20035;-79
2021/03/14 01:27:40;;;;;;;4.13;1.25;;;;;;;6.07;66.01;96097.03;4995976;28;20029;-79
2021/03/14 01:30:06;;;;;;;4.60;1.50;;;;;;;6.10;65.52;96108.66;5013530;28;20037;-79
2021/03/14 01:32:33;;;;;;;3.83;1.48;;;;;;;6.00;65.60;96104.19;5013324;28;20029;-79
2021/03/14 01:34:58;;;;;;;2.65;1.52;;;;;;;6.25;65.12;96111.41;5013905;28;20068;-79
2021/03/14 01:37:24;;;;;;;4.68;1.88;;;;;;;6.24;65.50;96111.66;5012877;28;20114;-79
2021/03/14 01:39:50;;;;;;;4.20;1.75;;;;;;;6.27;64.92;96108.59;4995748;28;20025;-79
2021/03/14 01:42:24;;;;;;;5.45;2.28;;;;;;;5.80;66.18;96112.44;5029535;28;20031;-79
2021/03/14 01:44:49;;;;;;;3.58;2.70;;;;;;;6.13;65.63;96103.03;5010732;28;20036;-80
2021/03/14 01:47:14;;;;;;;6.65;2.78;;;;;;;6.19;65.15;96100.25;5010749;28;20038;-79
2021/03/14 01:49:40;;;;;;;5.97;2.88;;;;;;;6.22;65.40;96114.50;5016031;28;20408;-79
2021/03/14 01:52:06;;;;;;;7.90;4.28;;;;;;;6.24;65.63;96125.38;5001436;28;20056;-79
2021/03/14 01:54:31;;;;;;;7.75;3.95;;;;;;;6.30;64.95;96121.03;4994771;28;20476;-78
2021/03/14 01:56:57;;;;;;;9.02;4.13;;;;;;;6.33;64.71;96133.50;5011418;28;20033;-79
2021/03/14 01:59:22;;;;;;;8.27;3.78;;;;;;;6.11;65.56;96136.84;5008920;28;20182;-79
2021/03/14 02:01:48;;;;;;;7.75;4.07;;;;;;;6.21;65.23;96150.94;5017073;28;20068;-79
2021/03/14 02:04:13;;;;;;;9.10;4.40;;;;;;;5.97;65.70;96141.59;5041801;22;20041;-78
2021/03/14 02:06:38;;;;;;;8.48;4.25;;;;;;;5.98;65.53;96140.59;4992255;28;20042;-79
2021/03/14 02:09:04;;;;;;;9.70;5.07;;;;;;;6.14;65.17;96144.13;4998521;28;20400;-79
2021/03/14 02:11:34;;;;;;;9.68;4.78;;;;;;;5.86;65.99;96142.50;4974866;28;20037;-79
2021/03/14 02:14:03;;;;;;;9.02;5.25;;;;;;;5.88;66.17;96152.56;5004018;28;20427;-78
2021/03/14 02:16:33;;;;;;;12.35;5.15;;;;;;;5.98;65.17;96150.94;5006238;28;20728;-79
2021/03/14 02:19:00;;;;;;;13.00;6.13;;;;;;;6.12;65.29;96146.19;5002497;28;20029;-79
2021/03/14 02:21:27;;;;;;;8.45;4.97;;;;;;;6.18;65.54;96147.00;4996454;28;20033;-79
2021/03/14 02:24:19;;;;;;;10.40;5.05;;;;;;;5.94;65.90;96154.19;4963606;28;20041;-79
2021/03/14 02:26:45;;;;;;;10.52;5.82;;;;;;;6.32;65.57;96161.16;5019188;28;20087;-79
2021/03/14 02:29:18;;;;;;;10.32;5.10;;;;;;;6.24;64.67;96163.34;5021898;28;20467;-79
2021/03/14 02:31:45;;;;;;;12.05;6.28;;;;;;;6.24;64.14;96173.69;4978900;28;20075;-79
2021/03/14 02:34:13;;;;;;;9.43;5.50;;;;;;;6.24;64.99;96176.28;5012200;28;20108;-79
2021/03/14 02:36:41;;;;;;;11.00;6.38;;;;;;;6.15;65.29;96173.34;4963783;28;20034;-79
2021/03/14 02:39:11;;;;;;;12.00;6.32;;;;;;;6.15;64.49;96179.31;4977673;28;20033;-79
2021/03/14 02:41:38;;;;;;;12.52;5.97;;;;;;;6.17;65.10;96173.91;5001252;28;20108;-79
2021/03/14 02:44:05;;;;;;;10.13;6.05;;;;;;;6.08;65.14;96178.69;4985193;28;20033;-78
2021/03/14 02:46:31;;;;;;;10.23;5.22;;;;;;;5.98;66.15;96171.59;4992052;28;20026;-78
2021/03/14 02:48:58;;;;;;;15.98;7.15;;;;;;;6.16;65.03;96173.09;4988832;28;20472;-78
2021/03/14 02:51:24;;;;;;;14.50;7.07;;;;;;;6.26;64.80;96179.44;5006369;28;20427;-79
2021/03/14 02:53:50;;;;;;;15.45;6.85;;;;;;;6.24;64.76;96174.50;4988253;28;20033;-79
2021/03/14 02:56:16;;;;;;;12.63;7.22;;;;;;;6.26;65.17;96177.63;4982381;28;20083;-79
2021/03/14 02:58:42;;;;;;;15.18;7.43;;;;;;;6.08;65.50;96183.84;5016300;28;20041;-78
2021/03/14 03:01:08;;;;;;;18.23;8.43;;;;;;;5.98;65.48;96181.94;5000106;28;20044;-78
2021/03/14 03:03:34;;;;;;;15.10;8.38;;;;;;;5.88;66.57;96186.94;4992497;28;20457;-78
2021/03/14 03:06:00;;;;;;;12.50;7.72;;;;;;;6.24;65.87;96194.38;4998498;28;20113;-79
2021/03/14 03:08:27;;;;;;;21.05;8.48;;;;;;;6.10;65.47;96199.91;4992041;28;20053;-78
2021/03/14 03:10:54;;;;;;;13.02;7.40;;;;;;;6.15;66.00;96199.97;4976559;28;20098;-78
2021/03/14 03:13:20;;;;;;;14.70;7.30;;;;;;;6.43;64.77;96203.41;4975910;28;20133;-79
2021/03/14 03:15:46;;;;;;;16.10;7.68;;;;;;;6.47;65.11;96206.28;4994948;28;20033;-78
2021/03/14 03:18:13;;;;;;;14.13;6.93;;;;;;;6.27;65.72;96210.22;4955835;28;20059;-78
2021/03/14 03:20:39;;;;;;;11.20;6.10;;;;;;;6.34;64.64;96212.59;5011577;28;20041;-79
2021/03/14 03:23:05;;;;;;;11.98;6.45;;;;;;;5.94;65.80;96223.94;4975619;28;20033;-78
2021/03/14 03:25:30;;;;;;;11.20;6.00;;;;;;;6.06;65.45;96216.91;4947271;28;20026;-78
2021/03/14 03:27:56;;;;;;;9.30;5.55;;;;;;;5.97;66.44;96228.69;4997261;28;20030;-79
2021/03/14 03:30:25;;;;;;;13.43;6.45;;;;;;;5.89;65.91;96229.06;5011037;28;20107;-78
2021/03/14 03:32:50;;;;;;;10.95;6.47;;;;;;;6.30;65.36;96230.38;4963162;28;20033;-79
2021/03/14 03:35:19;;;;;;;12.55;5.90;;;;;;;6.05;65.72;96240.41;4995171;28;20026;-78
2021/03/14 03:37:46;;;;;;;11.02;5.93;;;;;;;6.08;65.75;96238.13;4986205;28;20034;-79
2021/03/14 03:40:14;;;;;;;8.48;5.32;;;;;;;6.05;65.88;96254.13;4989352;28;20033;-78
2021/03/14 03:43:01;;;;;;;10.90;5.40;;;;;;;5.73;66.49;96253.88;4974140;28;20036;-78
2021/03/14 03:45:30;;;;;;;10.45;4.95;;;;;;;6.04;66.43;96262.88;5011086;28;20662;-79
2021/03/14 03:47:56;;;;;;;10.93;5.50;;;;;;;5.66;67.31;96261.00;4992135;28;20120;-78
2021/03/14 03:50:23;;;;;;;9.50;4.90;;;;;;;5.58;66.69;96272.50;4962538;28;20142;-78
2021/03/14 03:52:50;;;;;;;8.38;4.05;;;;;;;5.88;66.58;96279.13;4979203;28;20041;-78
2021/03/14 03:55:16;;;;;;;8.25;3.90;;;;;;;6.10;65.80;96277.44;4988467;28;20033;-78
2021/03/14 03:57:43;;;;;;;7.20;3.78;;;;;;;6.22;64.89;96292.06;4972948;28;20499;-79
2021/03/14 04:00:13;;;;;;;8.50;4.13;;;;;;;5.80;65.65;96293.25;4988872;28;20037;-78
2021/03/14 04:02:39;;;;;;;6.40;3.33;;;;;;;6.14;65.05;96299.19;4995899;28;20034;-79
2021/03/14 04:05:07;;;;;;;8.20;3.40;;;;;;;6.07;64.49;96300.41;4955844;28;20519;-79
2021/03/14 04:07:35;;;;;;;4.43;2.10;;;;;;;6.02;65.43;96302.91;4990729;28;20370;-79
2021/03/14 04:10:02;;;;;;;4.95;2.08;;;;;;;6.08;64.46;96307.88;4995823;28;20034;-79
2021/03/14 04:12:28;;;;;;;7.63;2.88;;;;;;;5.97;65.81;96311.34;4976893;28;20061;-78
2021/03/14 04:14:54;;;;;;;3.50;1.95;;;;;;;5.98;65.70;96318.06;4982804;28;20061;-78
2021/03/14 04:17:20;;;;;;;2.90;1.35;;;;;;;5.73;65.96;96326.97;4956542;28;20048;-78
2021/03/14 04:19:47;;;;;;;2.60;1.33;;;;;;;5.76;65.83;96330.91;4944082;28;20030;-78
2021/03/14 04:22:12;;;;;;;3.25;1.60;;;;;;;5.92;65.45;96344.84;4977554;28;20041;-78
2021/03/14 04:24:38;;;;;;;3.00;1.70;;;;;;;5.51;66.41;96346.75;4995025;28;20037;-77
2021/03/14 04:27:05;;;;;;;2.53;1.25;;;;;;;5.67;66.44;96358.88;4998241;28;20026;-78
2021/03/14 04:29:31;;;;;;;3.42;1.42;;;;;;;5.68;65.96;96357.88;4992290;28;20062;-78
2021/03/14 04:31:56;;;;;;;5.25;1.02;;;;;;;5.63;66.62;96360.38;4975293;28;20463;-79
2021/03/14 04:34:23;;;;;;;3.70;1.27;;;;;;;5.72;65.44;96365.94;4974744;28;20053;-78
2021/03/14 04:36:49;;;;;;;1.77;1.02;;;;;;;5.88;65.56;96366.97;4977016;28;20061;-79
2021/03/14 04:39:15;;;;;;;4.07;1.25;;;;;;;5.91;65.63;96376.84;4974889;28;20058;-79
2021/03/14 04:41:42;;;;;;;2.15;1.13;;;;;;;5.96;64.94;96380.34;4990782;28;20166;-79
2021/03/14 04:44:08;;;;;;;5.72;1.20;;;;;;;5.90;65.02;96376.06;4974066;28;20076;-79
2021/03/14 04:46:33;;;;;;;4.03;1.25;;;;;;;6.00;64.53;96383.25;4981279;28;20113;-79
2021/03/14 04:48:59;;;;;;;2.47;1.13;;;;;;;5.98;64.88;96385.25;4974971;28;20141;-79
2021/03/14 04:51:26;;;;;;;2.10;1.30;;;;;;;5.81;65.01;96386.00;4991157;28;20037;-78
2021/03/14 04:53:52;;;;;;;3.63;1.45;;;;;;;5.72;65.21;96395.13;4958966;28;20548;-78
2021/03/14 04:56:17;;;;;;;3.72;2.10;;;;;;;5.73;65.49;96390.78;4982944;28;20117;-79
2021/03/14 04:58:43;;;;;;;5.18;2.22;;;;;;;5.60;65.13;96386.66;4969624;28;20473;-79
2021/03/14 05:01:09;;;;;;;6.97;3.17;;;;;;;5.62;66.06;96384.63;4987990;28;20065;-78
2021/03/14 05:03:35;;;;;;;8.35;3.22;;;;;;;5.69;65.61;96399.97;4989148;28;20042;-79
2021/03/14 05:06:00;;;;;;;5.10;2.85;;;;;;;5.84;65.20;96405.41;4974466;28;20030;-79
2021/03/14 05:08:27;;;;;;;6.20;3.75;;;;;;;5.86;64.52;96411.16;4973829;28;20049;-79
2021/03/14 05:10:53;;;;;;;6.13;3.17;;;;;;;5.80;65.31;96412.84;4974892;28;20034;-78
2021/03/14 05:13:20;;;;;;;7.72;3.45;;;;;;;5.69;65.00;96415.47;4990653;28;20425;-78
2021/03/14 05:15:50;;;;;;;6.20;3.42;;;;;;;5.55;64.83;96412.41;4976331;28;20489;-79
2021/03/14 05:18:16;;;;;;;6.68;3.05;;;;;;;5.73;65.28;96414.03;4980418;28;20048;-79
2021/03/14 05:20:42;;;;;;;7.90;3.72;;;;;;;5.78;65.24;96416.69;4970159;28;20041;-79
2021/03/14 05:23:07;;;;;;;8.68;3.63;;;;;;;5.70;65.43;96417.84;4976920;28;20385;-79
2021/03/14 05:25:33;;;;;;;6.70;3.47;;;;;;;5.53;65.83;96437.66;4994113;28;20042;-79
2021/03/14 05:28:01;;;;;;;7.97;3.78;;;;;;;5.46;65.79;96422.31;4975471;28;20064;-78
2021/03/14 05:30:30;;;;;;;8.35;4.05;;;;;;;5.59;65.72;96431.59;4956783;28;20134;-79
2021/03/14 05:32:56;;;;;;;6.80;3.90;;;;;;;5.74;65.23;96437.03;4993408;28;20034;-78
2021/03/14 05:35:24;;;;;;;7.03;3.00;;;;;;;5.67;65.65;96449.28;4990688;28;20030;-78
2021/03/14 05:37:50;;;;;;;8.07;4.30;;;;;;;5.89;64.62;96451.22;5002399;28;20084;-78
2021/03/14 05:40:19;;;;;;;7.18;3.33;;;;;;;5.80;65.41;96458.56;4990121;28;20348;-78
2021/03/14 05:42:45;;;;;;;8.50;2.88;;;;;;;5.74;64.95;96455.13;4981044;28;20643;-78
2021/03/14 05:45:11;;;;;;;6.65;2.75;;;;;;;5.79;64.98;96447.47;5025633;28;20025;-78
2021/03/14 05:47:38;;;;;;;5.65;2.53;;;;;;;5.81;64.92;96458.34;4970819;28;20120;-78
2021/03/14 05:50:10;;;;;;;6.78;2.40;;;;;;;5.65;64.34;96448.72;4966436;28;20026;-76
2021/03/14 05:52:39;;;;;;;5.65;2.67;;;;;;;5.66;64.48;96452.91;4973550;28;20029;-76
2021/03/14 05:55:07;;;;;;;6.95;2.40;;;;;;;5.85;64.32;96457.88;4974077;28;20022;-75
2021/03/14 05:57:33;;;;;;;6.35;2.53;;;;;;;5.59;65.70;96453.03;4959099;28;20045;-76
2021/03/14 05:59:59;;;;;;;6.70;2.88;;;;;;;5.82;65.01;96459.13;4973780;28;20109;-76
2021/03/14 06:02:27;;;;;;;5.70;2.25;;;;;;;5.80;64.56;96469.69;4945501;28;20129;-76
2021/03/14 06:04:53;;;;;;;6.50;2.45;;;;;;;5.93;63.89;96457.47;4957726;28;20042;-75
2021/03/14 06:07:19;;;;;;;6.40;2.45;;;;;;;5.92;64.20;96471.44;4981985;28;20049;-76
2021/03/14 06:09:44;;;;;;;5.32;2.22;;;;;;;5.96;63.95;96465.63;4987152;28;20031;-76
2021/03/14 06:12:11;;;;;;;5.72;2.38;;;;;;;5.86;63.38;96468.00;4986778;28;20031;-76
2021/03/14 06:14:37;;;;;;;4.10;2.08;;;;;;;5.88;63.75;96472.91;4986301;28;20034;-76
2021/03/14 06:17:02;;;;;;;5.32;2.72;;;;;;;5.70;63.29;96474.66;4975897;28;20119;-76
2021/03/14 06:19:28;;;;;;;5.50;2.25;;;;;;;5.60;64.60;96477.03;4987310;28;20044;-76
2021/03/14 06:22:17;;;;;;;4.38;2.67;;;;;;;5.27;64.43;96482.84;4973789;28;20026;-76
2021/03/14 06:24:42;;;;;;;6.63;2.75;;;;;;;5.68;63.24;96479.28;4973565;28;20036;-75
2021/03/14 06:27:08;;;;;;;5.55;2.50;;;;;;;5.75;63.84;96492.84;5006827;28;20030;-76
2021/03/14 06:29:33;;;;;;;9.15;2.75;;;;;;;5.87;63.46;96504.94;4990853;28;20033;-76
2021/03/14 06:32:01;;;;;;;6.38;2.25;;;;;;;5.74;63.05;96503.38;4991127;28;20108;-76
2021/03/14 06:34:30;;;;;;;6.72;2.65;;;;;;;5.89;63.15;96508.84;4990442;28;20481;-76
2021/03/14 06:37:16;;;;;;;7.05;2.58;;;;;;;5.58;63.84;96522.97;4970140;28;20043;-76
2021/03/14 06:39:47;;;;;;;5.57;2.35;;;;;;;5.70;64.16;96518.56;4988258;28;20050;-76
2021/03/14 06:42:34;;;;;;;7.70;3.08;;;;;;;5.63;63.45;96520.50;4959310;28;20069;-76
2021/03/14 06:45:02;;;;;;;5.78;1.95;;;;;;;6.02;63.94;96528.50;4986997;28;20033;-76
2021/03/14 06:47:45;;;;;;;5.05;2.17;;;;;;;5.81;64.09;96535.84;4955587;28;20485;-76
2021/03/14 06:50:17;;;;;;;5.78;1.80;;;;;;;5.92;64.11;96541.97;4971272;28;20448;-76
2021/03/14 06:53:21;;;;;;;4.10;2.20;;;;;;;5.78;65.07;96548.44;5011065;28;20106;-76
2021/03/14 06:55:49;;;;;;;7.30;2.28;;;;;;;6.30;63.45;96552.75;4973833;28;20030;-76
2021/03/14 06:58:27;;;;;;;3.97;1.60;;;;;;;6.29;63.07;96553.78;4974804;28;20117;-76
2021/03/14 07:01:13;;;;;;;5.65;1.70;;;;;;;6.17;64.53;96562.38;4990639;28;20080;-76
2021/03/14 07:03:57;;;;;;;4.28;1.83;;;;;;;6.07;64.43;96561.41;5010187;28;20048;-76
2021/03/14 07:06:27;;;;;;;6.70;1.75;;;;;;;6.25;62.95;96563.78;4973089;28;20041;-76
2021/03/14 07:08:55;;;;;;;6.43;2.58;;;;;;;6.49;63.52;96569.63;4958273;28;20042;-76
2021/03/14 07:11:37;;;;;;;4.07;1.77;;;;;;;5.99;63.81;96575.47;4957257;28;20037;-76
2021/03/14 07:14:09;;;;;;;4.60;1.98;;;;;;;6.34;63.67;96577.13;4990495;28;20058;-76
2021/03/14 07:16:48;;;;;;;5.18;2.45;;;;;;;6.15;63.35;96579.91;4974783;28;20022;-76
2021/03/14 07:19:21;;;;;;;3.92;1.38;;;;;;;6.13;63.81;96596.66;4990471;28;20039;-76
2021/03/14 07:22:07;;;;;;;6.43;2.00;;;;;;;6.18;63.40;96589.78;4958363;28;20026;-76
2021/03/14 07:24:35;;;;;;;5.18;1.30;;;;;;;6.45;62.45;96591.81;4988715;28;20038;-76
2021/03/14 07:27:04;;;;;;;6.22;2.00;;;;;;;6.32;62.49;96587.72;4992464;28;20073;-76
2021/03/14 07:29:30;;;;;;;3.30;1.60;;;;;;;6.53;61.67;96601.78;4992769;28;20121;-76
2021/03/14 07:31:58;;;;;;;3.88;1.65;;;;;;;6.54;61.94;96611.09;4987777;28;20026;-76
2021/03/14 07:34:24;;;;;;;4.85;1.90;;;;;;;6.50;62.58;96612.59;4990677;28;20026;-76
2021/03/14 07:36:50;;;;;;;3.30;1.75;;;;;;;6.51;62.31;96619.34;4990048;28;20573;-76
2021/03/14 07:39:16;;;;;;;7.18;1.45;;;;;;;6.53;63.08;96622.47;4973392;28;20125;-76
2021/03/14 07:41:42;;;;;;;4.28;1.45;;;;;;;6.49;63.33;96623.94;4989024;28;20026;-76
2021/03/14 07:44:08;;;;;;;4.93;1.83;;;;;;;6.41;63.58;96626.91;4990785;28;20029;-76
2021/03/14 07:46:34;;;;;;;4.18;1.35;;;;;;;6.60;62.60;96627.53;4977688;28;20033;-76
2021/03/14 07:49:00;;;;;;;5.03;1.67;;;;;;;6.35;63.79;96638.19;4993202;28;20032;-76
2021/03/14 07:51:27;;;;;;;5.18;3.15;;;;;;;6.40;62.54;96638.28;4989015;28;20030;-76
2021/03/14 07:53:53;;;;;;;3.50;1.83;;;;;;;6.38;63.44;96641.09;5009165;28;20045;-76
2021/03/14 07:56:20;;;;;;;3.42;1.60;;;;;;;6.39;63.01;96641.84;4960696;28;20037;-76
2021/03/14 07:58:54;;;;;;;10.75;1.65;;;;;;;6.35;62.65;96661.44;4993282;28;20050;-76
2021/03/14 08:01:24;;;;;;;4.68;1.50;;;;;;;6.56;62.46;96653.06;4977025;28;20030;-76
2021/03/14 08:03:50;;;;;;;5.55;1.85;;;;;;;6.55;63.15;96659.25;4992949;28;20046;-76
2021/03/14 08:06:16;;;;;;;5.35;1.73;;;;;;;6.48;63.93;96665.59;4952655;28;20034;-76
2021/03/14 08:08:43;;;;;;;5.00;1.83;;;;;;;6.60;63.60;96671.50;4973590;28;20049;-76
2021/03/14 08:11:26;;;;;;;6.15;1.92;;;;;;;6.40;62.13;96669.31;4973605;28;20084;-76
2021/03/14 08:13:51;;;;;;;8.90;1.70;;;;;;;6.47;63.03;96669.16;4973465;28;20133;-76
2021/03/14 08:16:16;;;;;;;2.95;2.13;;;;;;;6.82;62.60;96671.63;5007523;28;20104;-76
2021/03/14 08:18:44;;;;;;;4.43;1.77;;;;;;;7.07;61.64;96686.00;4993031;28;20037;-76
2021/03/14 08:21:29;;;;;;;5.97;1.70;;;;;;;6.70;62.11;96682.03;4976841;28;20034;-76
2021/03/14 08:23:56;;;;;;;4.88;1.50;;;;;;;7.07;61.91;96684.19;4992665;28;20109;-76
2021/03/14 08:26:28;;;;;;;4.13;1.98;;;;;;;7.08;62.13;96679.81;4958548;28;20041;-76
2021/03/14 08:29:02;;;;;;;5.25;1.58;;;;;;;6.99;62.90;96686.38;5015017;28;20042;-76
2021/03/14 08:31:47;;;;;;;4.45;1.90;;;;;;;7.10;61.66;96688.13;4971932;28;20450;-76
2021/03/14 08:34:26;;;;;;;5.43;2.00;;;;;;;7.28;60.59;96689.72;4989080;28;20073;-76
2021/03/14 08:36:53;;;;;;;6.18;2.10;;;;;;;7.08;61.89;96703.13;4990297;28;20031;-78
2021/03/14 08:39:24;;;;;;;4.55;1.92;;;;;;;7.15;61.18;96695.22;4942553;28;20073;-78
2021/03/14 08:41:51;;;;;;;6.65;1.98;;;;;;;7.42;60.17;96695.34;4976947;28;20485;-78
2021/03/14 08:44:41;;;;;;;3.53;1.85;;;;;;;6.83;61.40;96695.69;4990629;28;20069;-78
2021/03/14 08:47:14;;;;;;;5.30;1.73;;;;;;;7.35;60.61;96708.50;4985209;28;20029;-78
2021/03/14 08:49:52;;;;;;;5.32;2.05;;;;;;;7.11;62.32;96706.03;4977429;28;20515;-78
2021/03/14 08:52:18;;;;;;;5.88;1.85;;;;;;;7.45;60.55;96716.44;5021055;28;20061;-78
2021/03/14 08:54:51;;;;;;;4.63;1.73;;;;;;;7.53;61.35;96714.47;4976718;28;20040;-78
2021/03/14 08:57:17;;;;;;;5.50;1.85;;;;;;;7.45;61.31;96718.22;4987103;28;20104;-78
2021/03/14 08:59:49;;;;;;;6.05;1.98;;;;;;;7.37;61.12;96716.00;4977959;28;20040;-78
2021/03/14 09:02:26;;;;;;;6.15;1.70;;;;;;;7.21;61.11;96718.34;5011472;28;20493;-78
2021/03/14 09:04:53;;;;;;;7.00;2.80;;;;;;;7.40;60.99;96713.75;4985896;28;20113;-78
2021/03/14 09:07:19;;;;;;;2.28;1.48;;;;;;;7.70;60.64;96723.00;4980374;28;20472;-78
2021/03/14 09:09:45;;;;;;;4.38;2.38;;;;;;;7.59;60.43;96721.28;4958211;28;20564;-78
2021/03/14 09:12:15;;;;;;;7.40;1.80;;;;;;;7.66;60.01;96733.06;4974183;28;20201;-78
2021/03/14 09:14:48;;;;;;;5.30;2.08;;;;;;;7.67;60.94;96726.84;4982265;28;20085;-78
2021/03/14 09:17:18;;;;;;;3.25;1.90;;;;;;;7.77;60.10;96728.81;4955555;28;20026;-78
2021/03/14 09:19:54;;;;;;;6.13;2.38;;;;;;;6.80;62.30;96717.63;4990803;28;20026;-78
2021/03/14 09:22:22;;;;;;;4.47;2.13;;;;;;;7.47;60.61;96729.13;5004325;28;20062;-78
2021/03/14 09:24:49;;;;;;;5.25;2.15;;;;;;;7.53;59.89;96712.66;4951108;28;20050;-78
2021/03/14 09:27:19;;;;;;;4.95;2.03;;;;;;;7.36;60.97;96723.00;5004532;28;20034;-78
2021/03/14 09:29:55;;;;;;;5.57;1.83;;;;;;;7.52;61.13;96716.25;4971581;28;20061;-78
2021/03/14 09:32:31;;;;;;;7.93;2.45;;;;;;;7.26;61.32;96715.84;4990087;28;20151;-78
2021/03/14 09:35:12;;;;;;;10.02;2.53;;;;;;;7.23;60.77;96718.91;4973396;28;20448;-78
2021/03/14 09:37:39;;;;;;;4.63;2.35;;;;;;;7.67;59.46;96713.88;4989179;28;20416;-78
2021/03/14 09:40:13;;;;;;;6.28;2.40;;;;;;;7.31;61.03;96717.72;5023693;28;20105;-78
2021/03/14 09:42:40;;;;;;;7.43;2.73;;;;;;;7.62;60.66;96719.00;5008434;28;20040;-78
2021/03/14 09:45:18;;;;;;;8.05;2.78;;;;;;;7.61;60.28;96725.22;4973610;28;20376;-78
2021/03/14 09:47:59;;;;;;;8.27;1.92;;;;;;;7.54;60.55;96724.59;4960289;28;20381;-78
2021/03/14 09:50:25;;;;;;;7.97;2.30;;;;;;;7.89;59.00;96731.31;4971006;28;20057;-78
2021/03/14 09:52:51;;;;;;;7.95;2.35;;;;;;;7.72;60.10;96736.50;4976005;28;20062;-78
2021/03/14 09:55:27;;;;;;;6.85;2.60;;;;;;;7.35;60.28;96741.34;4991465;28;20021;-78
2021/03/14 09:57:52;;;;;;;6.10;2.22;;;;;;;7.52;60.66;96743.97;4976360;28;20069;-79
2021/03/14 10:00:23;;;;;;;7.07;2.30;;;;;;;7.34;61.08;96739.81;4992862;28;20531;-78
2021/03/14 10:02:49;;;;;;;4.97;2.28;;;;;;;7.44;60.65;96739.97;4987314;28;20041;-78
2021/03/14 10:05:15;;;;;;;5.95;2.35;;;;;;;7.36;61.00;96745.53;4969526;28;20466;-79
2021/03/14 10:07:41;;;;;;;4.57;2.40;;;;;;;6.79;62.75;96744.53;4981602;28;20128;-79
2021/03/14 10:10:13;;;;;;;6.38;1.60;;;;;;;6.99;61.46;96753.69;5002214;28;20117;-79
2021/03/14 10:12:40;;;;;;;5.43;1.77;;;;;;;7.16;61.62;96741.56;4990972;28;20038;-79
2021/03/14 10:15:07;;;;;;;8.90;3.17;;;;;;;7.27;61.20;96752.88;4962749;28;20026;-79
2021/03/14 10:17:37;;;;;;;6.97;2.25;;;;;;;6.87;62.31;96740.78;4998831;28;20041;-79
2021/03/14 10:20:05;;;;;;;5.50;2.20;;;;;;;6.84;60.82;96752.41;4953216;28;20022;-79
2021/03/14 10:22:32;;;;;;;4.22;2.03;;;;;;;6.97;61.53;96750.53;4989214;28;20080;-79
2021/03/14 10:24:59;;;;;;;6.05;2.05;;;;;;;6.82;62.38;96745.88;4996384;28;20039;-79
2021/03/14 10:27:29;;;;;;;8.05;2.58;;;;;;;6.93;62.09;96751.00;4980860;28;20038;-79
2021/03/14 10:30:00;;;;;;;4.00;2.35;;;;;;;6.81;62.47;96752.84;4981690;28;20584;-79
2021/03/14 10:32:28;;;;;;;5.95;1.90;;;;;;;6.83;61.85;96753.41;4976695;28;20377;-79
2021/03/14 10:35:01;;;;;;;4.53;2.20;;;;;;;6.94;62.03;96749.22;4958018;28;20022;-77
2021/03/14 10:37:39;;;;;;;4.32;2.35;;;;;;;6.72;62.47;96749.84;4974861;28;20037;-77
2021/03/14 10:40:12;;;;;;;4.28;2.50;;;;;;;6.81;62.04;96747.66;4976986;28;20119;-77
2021/03/14 10:42:41;;;;;;;7.10;2.10;;;;;;;6.75;62.68;96751.16;5027032;28;20037;-77
2021/03/14 10:45:13;;;;;;;4.03;2.03;;;;;;;6.65;61.98;96753.56;4994180;28;20033;-76
2021/03/14 10:47:40;;;;;;;5.65;2.40;;;;;;;6.78;62.47;96742.19;4995038;28;20030;-77
2021/03/14 10:50:20;;;;;;;5.82;2.88;;;;;;;6.73;62.42;96741.06;4959708;28;20031;-77
2021/03/14 10:53:12;;;;;;;3.78;1.80;;;;;;;6.28;63.76;96738.34;4974822;28;20099;-77
2021/03/14 10:55:40;;;;;;;4.72;2.65;;;;;;;6.61;63.08;96747.28;4962133;28;20026;-77
2021/03/14 10:58:08;;;;;;;4.13;1.80;;;;;;;6.59;62.85;96752.69;4978970;28;20030;-77
2021/03/14 11:00:36;;;;;;;2.92;1.67;;;;;;;6.68;62.29;96753.09;4994622;28;20034;-77
2021/03/14 11:03:11;;;;;;;4.40;1.83;;;;;;;6.60;62.98;96741.34;4962255;28;20096;-77
2021/03/14 11:05:39;;;;;;;3.85;1.40;;;;;;;6.60;63.32;96750.88;4972435;28;20039;-77
2021/03/14 11:08:04;;;;;;;2.67;1.45;;;;;;;6.66;62.88;96760.31;5022192;28;20061;-77
2021/03/14 11:10:31;;;;;;;3.67;1.80;;;;;;;6.56;63.74;96751.34;4977007;28;20092;-77
2021/03/14 11:12:56;;;;;;;3.40;1.27;;;;;;;6.59;62.80;96757.06;4978316;28;20072;-77
2021/03/14 11:15:33;;;;;;;4.22;2.08;;;;;;;6.29;63.47;96761.41;4992665;28;20112;-77
2021/03/14 11:18:04;;;;;;;5.53;2.55;;;;;;;6.43;63.15;96761.94;4982634;28;20030;-77
2021/03/14 11:20:31;;;;;;;6.00;3.03;;;;;;;6.53;62.49;96767.31;4967194;28;20058;-77
2021/03/14 11:22:59;;;;;;;6.28;3.05;;;;;;;6.43;63.32;96772.28;5019381;28;20108;-77
2021/03/14 11:25:26;;;;;;;3.75;2.50;;;;;;;6.40;63.54;96767.56;4969358;28;20026;-77
2021/03/14 11:27:52;;;;;;;4.50;2.60;;;;;;;6.45;63.07;96779.81;4964146;28;20049;-77
2021/03/14 11:30:24;;;;;;;5.00;2.45;;;;;;;6.39;63.70;96773.72;5000400;28;20030;-77
2021/03/14 11:32:50;;;;;;;3.25;2.03;;;;;;;6.45;63.57;96777.22;4983200;28;20042;-77
2021/03/14 11:35:17;;;;;;;3.95;1.83;;;;;;;6.32;63.39;96765.31;4979326;28;20022;-77
2021/03/14 11:37:43;;;;;;;3.92;1.63;;;;;;;6.35;64.05;96764.88;4999182;28;20073;-77
2021/03/14 11:40:10;;;;;;;3.25;1.77;;;;;;;6.38;63.54;96761.84;4965984;28;20059;-77
2021/03/14 11:42:36;;;;;;;3.55;1.88;;;;;;;6.43;63.87;96772.28;4975554;28;20485;-77
2021/03/14 11:45:03;;;;;;;2.53;1.70;;;;;;;6.37;63.50;96760.25;4986858;28;20517;-77
2021/03/14 11:47:29;;;;;;;4.45;2.10;;;;;;;6.50;63.48;96762.59;4989499;28;20041;-77